sensor_id;sensor_type;location;lat;lon;timestamp;temperature;humidity
38325;DHT22;24126;52.672;13.622;2023-03-23T00:02:16;16.50;63.50
38325;DHT22;24126;52.672;13.622;2023-03-23T00:04:43;16.40;63.60
38325;DHT22;24126;52.672;13.622;2023-03-23T00:07:10;16.40;63.60
38325;DHT22;24126;52.672;13.622;2023-03-23T00:09:38;16.40;63.70
38325;DHT22;24126;52.672;13.622;2023-03-23T00:12:08;16.40;63.60
38325;DHT22;24126;52.672;13.622;2023-03-23T00:14:35;16.30;63.70
38325;DHT22;24126;52.672;13.622;2023-03-23T00:17:09;16.30;63.70
38325;DHT22;24126;52.672;13.622;2023-03-23T00:19:37;16.20;63.70
38325;DHT22;24126;52.672;13.622;2023-03-23T00:22:15;16.20;63.70
38325;DHT22;24126;52.672;13.622;2023-03-23T00:24:42;16.20;63.90
38325;DHT22;24126;52.672;13.622;2023-03-23T00:27:09;16.10;63.90
38325;DHT22;24126;52.672;13.622;2023-03-23T00:29:38;16.10;64.00
38325;DHT22;24126;52.672;13.622;2023-03-23T00:32:06;16.10;64.10
38325;DHT22;24126;52.672;13.622;2023-03-23T00:34:38;16.00;64.20
38325;DHT22;24126;52.672;13.622;2023-03-23T00:37:06;16.00;64.10
38325;DHT22;24126;52.672;13.622;2023-03-23T00:39:35;16.00;64.20
38325;DHT22;24126;52.672;13.622;2023-03-23T00:42:03;16.00;64.30
38325;DHT22;24126;52.672;13.622;2023-03-23T00:44:31;15.90;64.30
38325;DHT22;24126;52.672;13.622;2023-03-23T00:47:00;15.90;64.40
38325;DHT22;24126;52.672;13.622;2023-03-23T00:49:30;15.90;64.50
38325;DHT22;24126;52.672;13.622;2023-03-23T00:52:00;15.90;64.50
38325;DHT22;24126;52.672;13.622;2023-03-23T00:54:28;15.90;64.50
38325;DHT22;24126;52.672;13.622;2023-03-23T00:56:55;15.90;64.50
38325;DHT22;24126;52.672;13.622;2023-03-23T00:59:22;15.90;64.40
38325;DHT22;24126;52.672;13.622;2023-03-23T01:01:50;15.80;64.40
38325;DHT22;24126;52.672;13.622;2023-03-23T01:04:18;15.80;64.50
38325;DHT22;24126;52.672;13.622;2023-03-23T01:06:48;15.70;64.60
38325;DHT22;24126;52.672;13.622;2023-03-23T01:09:16;15.70;64.60
38325;DHT22;24126;52.672;13.622;2023-03-23T01:11:48;15.60;64.70
38325;DHT22;24126;52.672;13.622;2023-03-23T01:14:16;15.60;64.70
38325;DHT22;24126;52.672;13.622;2023-03-23T01:16:44;15.50;64.90
38325;DHT22;24126;52.672;13.622;2023-03-23T01:19:11;15.50;65.10
38325;DHT22;24126;52.672;13.622;2023-03-23T01:21:39;15.40;65.10
38325;DHT22;24126;52.672;13.622;2023-03-23T01:24:06;15.40;65.20
38325;DHT22;24126;52.672;13.622;2023-03-23T01:26:33;15.40;65.30
38325;DHT22;24126;52.672;13.622;2023-03-23T01:29:00;15.30;65.40
38325;DHT22;24126;52.672;13.622;2023-03-23T01:31:27;15.30;65.50
38325;DHT22;24126;52.672;13.622;2023-03-23T01:33:54;15.30;65.60
38325;DHT22;24126;52.672;13.622;2023-03-23T01:36:23;15.30;65.80
38325;DHT22;24126;52.672;13.622;2023-03-23T01:38:53;15.20;65.80
38325;DHT22;24126;52.672;13.622;2023-03-23T01:41:21;15.20;66.00
38325;DHT22;24126;52.672;13.622;2023-03-23T01:46:27;15.10;66.10
38325;DHT22;24126;52.672;13.622;2023-03-23T01:48:56;15.10;66.20
38325;DHT22;24126;52.672;13.622;2023-03-23T01:51:23;15.10;66.30
38325;DHT22;24126;52.672;13.622;2023-03-23T01:53:57;15.10;66.40
38325;DHT22;24126;52.672;13.622;2023-03-23T01:56:27;15.00;66.50
38325;DHT22;24126;52.672;13.622;2023-03-23T01:58:56;15.10;66.60
38325;DHT22;24126;52.672;13.622;2023-03-23T02:01:24;15.10;66.60
38325;DHT22;24126;52.672;13.622;2023-03-23T02:03:52;15.10;66.50
38325;DHT22;24126;52.672;13.622;2023-03-23T02:06:21;15.20;66.50
38325;DHT22;24126;52.672;13.622;2023-03-23T02:09:13;15.20;66.40
38325;DHT22;24126;52.672;13.622;2023-03-23T02:11:43;15.20;66.30
38325;DHT22;24126;52.672;13.622;2023-03-23T02:14:11;15.20;66.20
38325;DHT22;24126;52.672;13.622;2023-03-23T02:16:54;15.10;66.20
38325;DHT22;24126;52.672;13.622;2023-03-23T02:22:22;15.10;66.50
38325;DHT22;24126;52.672;13.622;2023-03-23T02:25:04;15.10;66.50
38325;DHT22;24126;52.672;13.622;2023-03-23T02:35:41;15.30;66.60
38325;DHT22;24126;52.672;13.622;2023-03-23T02:41:15;15.30;66.60
38325;DHT22;24126;52.672;13.622;2023-03-23T02:43:43;15.30;66.60
38325;DHT22;24126;52.672;13.622;2023-03-23T02:46:11;15.40;66.60
38325;DHT22;24126;52.672;13.622;2023-03-23T02:48:39;15.40;66.60
38325;DHT22;24126;52.672;13.622;2023-03-23T02:51:08;15.40;66.50
38325;DHT22;24126;52.672;13.622;2023-03-23T02:53:36;15.40;66.60
38325;DHT22;24126;52.672;13.622;2023-03-23T02:56:04;15.50;66.60
38325;DHT22;24126;52.672;13.622;2023-03-23T02:58:34;15.50;66.60
38325;DHT22;24126;52.672;13.622;2023-03-23T03:01:15;15.50;66.60
38325;DHT22;24126;52.672;13.622;2023-03-23T03:03:43;15.50;66.60
38325;DHT22;24126;52.672;13.622;2023-03-23T03:06:14;15.60;66.70
38325;DHT22;24126;52.672;13.622;2023-03-23T03:08:49;15.60;66.80
38325;DHT22;24126;52.672;13.622;2023-03-23T03:11:17;15.60;66.80
38325;DHT22;24126;52.672;13.622;2023-03-23T03:13:53;15.60;66.80
38325;DHT22;24126;52.672;13.622;2023-03-23T03:16:24;15.60;66.90
38325;DHT22;24126;52.672;13.622;2023-03-23T03:18:56;15.60;67.10
38325;DHT22;24126;52.672;13.622;2023-03-23T03:21:25;15.60;67.00
38325;DHT22;24126;52.672;13.622;2023-03-23T03:23:56;15.60;67.10
38325;DHT22;24126;52.672;13.622;2023-03-23T03:26:27;15.70;67.10
38325;DHT22;24126;52.672;13.622;2023-03-23T03:28:59;15.70;67.20
38325;DHT22;24126;52.672;13.622;2023-03-23T03:31:34;15.70;67.20
38325;DHT22;24126;52.672;13.622;2023-03-23T03:34:03;15.70;67.30
38325;DHT22;24126;52.672;13.622;2023-03-23T03:36:33;15.70;67.30
38325;DHT22;24126;52.672;13.622;2023-03-23T03:39:05;15.70;67.40
38325;DHT22;24126;52.672;13.622;2023-03-23T03:41:36;15.70;67.50
38325;DHT22;24126;52.672;13.622;2023-03-23T03:44:04;15.70;67.50
38325;DHT22;24126;52.672;13.622;2023-03-23T03:46:32;15.70;67.70
38325;DHT22;24126;52.672;13.622;2023-03-23T03:49:00;15.70;67.90
38325;DHT22;24126;52.672;13.622;2023-03-23T03:51:27;15.70;68.20
38325;DHT22;24126;52.672;13.622;2023-03-23T03:53:55;15.80;68.50
38325;DHT22;24126;52.672;13.622;2023-03-23T03:56:22;15.70;68.60
38325;DHT22;24126;52.672;13.622;2023-03-23T03:59:02;15.70;68.80
38325;DHT22;24126;52.672;13.622;2023-03-23T04:01:48;15.70;69.00
38325;DHT22;24126;52.672;13.622;2023-03-23T04:04:20;15.70;69.30
38325;DHT22;24126;52.672;13.622;2023-03-23T04:06:47;15.70;69.50
38325;DHT22;24126;52.672;13.622;2023-03-23T04:09:16;15.70;69.50
38325;DHT22;24126;52.672;13.622;2023-03-23T04:11:43;15.70;69.60
38325;DHT22;24126;52.672;13.622;2023-03-23T04:14:36;15.70;69.60
38325;DHT22;24126;52.672;13.622;2023-03-23T04:17:04;15.70;69.80
38325;DHT22;24126;52.672;13.622;2023-03-23T04:19:33;15.70;69.80
38325;DHT22;24126;52.672;13.622;2023-03-23T04:22:02;15.70;69.90
38325;DHT22;24126;52.672;13.622;2023-03-23T04:24:31;15.70;70.00
38325;DHT22;24126;52.672;13.622;2023-03-23T04:26:59;15.70;70.10
38325;DHT22;24126;52.672;13.622;2023-03-23T04:29:30;15.60;70.20
38325;DHT22;24126;52.672;13.622;2023-03-23T04:32:05;15.60;70.30
38325;DHT22;24126;52.672;13.622;2023-03-23T04:34:38;15.60;70.50
38325;DHT22;24126;52.672;13.622;2023-03-23T04:37:05;15.60;70.50
38325;DHT22;24126;52.672;13.622;2023-03-23T04:39:35;15.60;70.60
38325;DHT22;24126;52.672;13.622;2023-03-23T04:42:03;15.60;70.80
38325;DHT22;24126;52.672;13.622;2023-03-23T04:44:54;15.50;70.80
38325;DHT22;24126;52.672;13.622;2023-03-23T04:47:27;15.50;71.00
38325;DHT22;24126;52.672;13.622;2023-03-23T04:49:58;15.50;71.10
38325;DHT22;24126;52.672;13.622;2023-03-23T04:52:32;15.50;71.10
38325;DHT22;24126;52.672;13.622;2023-03-23T04:55:04;15.60;71.20
38325;DHT22;24126;52.672;13.622;2023-03-23T04:57:31;15.60;71.30
38325;DHT22;24126;52.672;13.622;2023-03-23T05:00:18;15.60;71.20
38325;DHT22;24126;52.672;13.622;2023-03-23T05:02:50;15.60;71.20
38325;DHT22;24126;52.672;13.622;2023-03-23T05:05:19;15.60;71.40
38325;DHT22;24126;52.672;13.622;2023-03-23T05:07:47;15.70;71.50
38325;DHT22;24126;52.672;13.622;2023-03-23T05:10:17;15.60;71.50
38325;DHT22;24126;52.672;13.622;2023-03-23T05:12:45;15.60;71.50
38325;DHT22;24126;52.672;13.622;2023-03-23T05:15:13;15.60;71.70
38325;DHT22;24126;52.672;13.622;2023-03-23T05:17:42;15.60;71.80
38325;DHT22;24126;52.672;13.622;2023-03-23T05:20:15;15.60;71.80
38325;DHT22;24126;52.672;13.622;2023-03-23T05:22:46;15.60;71.90
38325;DHT22;24126;52.672;13.622;2023-03-23T05:25:16;15.60;72.10
38325;DHT22;24126;52.672;13.622;2023-03-23T05:27:49;15.60;72.20
38325;DHT22;24126;52.672;13.622;2023-03-23T05:30:41;15.60;72.30
38325;DHT22;24126;52.672;13.622;2023-03-23T05:33:10;15.60;72.30
38325;DHT22;24126;52.672;13.622;2023-03-23T05:36:00;15.60;72.50
38325;DHT22;24126;52.672;13.622;2023-03-23T05:38:34;15.60;72.50
38325;DHT22;24126;52.672;13.622;2023-03-23T05:41:02;15.60;72.50
38325;DHT22;24126;52.672;13.622;2023-03-23T05:43:37;15.60;72.60
38325;DHT22;24126;52.672;13.622;2023-03-23T05:46:14;15.60;72.70
38325;DHT22;24126;52.672;13.622;2023-03-23T05:48:41;15.60;72.70
38325;DHT22;24126;52.672;13.622;2023-03-23T05:51:13;15.60;72.70
38325;DHT22;24126;52.672;13.622;2023-03-23T05:53:46;15.60;72.80
38325;DHT22;24126;52.672;13.622;2023-03-23T05:56:17;15.70;73.20
38325;DHT22;24126;52.672;13.622;2023-03-23T05:58:57;15.70;72.80
38325;DHT22;24126;52.672;13.622;2023-03-23T06:01:33;15.70;72.80
38325;DHT22;24126;52.672;13.622;2023-03-23T06:04:00;15.70;72.80
38325;DHT22;24126;52.672;13.622;2023-03-23T06:06:38;15.70;72.90
38325;DHT22;24126;52.672;13.622;2023-03-23T06:09:10;15.60;73.00
38325;DHT22;24126;52.672;13.622;2023-03-23T06:12:15;15.60;73.10
38325;DHT22;24126;52.672;13.622;2023-03-23T06:14:59;15.60;73.20
38325;DHT22;24126;52.672;13.622;2023-03-23T06:17:46;15.60;73.30
38325;DHT22;24126;52.672;13.622;2023-03-23T06:20:13;15.60;73.50
38325;DHT22;24126;52.672;13.622;2023-03-23T06:22:41;15.60;73.50
38325;DHT22;24126;52.672;13.622;2023-03-23T06:25:12;15.60;73.60
38325;DHT22;24126;52.672;13.622;2023-03-23T06:27:41;15.50;73.80
38325;DHT22;24126;52.672;13.622;2023-03-23T06:30:09;15.50;73.90
38325;DHT22;24126;52.672;13.622;2023-03-23T06:32:37;15.50;74.00
38325;DHT22;24126;52.672;13.622;2023-03-23T06:35:09;15.50;74.20
38325;DHT22;24126;52.672;13.622;2023-03-23T06:37:55;15.50;74.30
38325;DHT22;24126;52.672;13.622;2023-03-23T06:40:34;15.50;74.40
38325;DHT22;24126;52.672;13.622;2023-03-23T06:43:04;15.50;74.60
38325;DHT22;24126;52.672;13.622;2023-03-23T06:45:50;15.50;74.80
38325;DHT22;24126;52.672;13.622;2023-03-23T06:48:44;15.50;74.90
38325;DHT22;24126;52.672;13.622;2023-03-23T06:51:16;15.50;75.00
38325;DHT22;24126;52.672;13.622;2023-03-23T06:53:47;15.50;75.10
38325;DHT22;24126;52.672;13.622;2023-03-23T06:56:15;15.50;75.20
38325;DHT22;24126;52.672;13.622;2023-03-23T06:58:42;15.60;75.30
38325;DHT22;24126;52.672;13.622;2023-03-23T07:01:11;15.60;76.00
38325;DHT22;24126;52.672;13.622;2023-03-23T07:03:41;15.60;75.40
38325;DHT22;24126;52.672;13.622;2023-03-23T07:06:11;15.60;75.50
38325;DHT22;24126;52.672;13.622;2023-03-23T07:08:46;15.60;75.60
38325;DHT22;24126;52.672;13.622;2023-03-23T07:11:18;15.60;75.80
38325;DHT22;24126;52.672;13.622;2023-03-23T07:13:45;15.60;75.80
38325;DHT22;24126;52.672;13.622;2023-03-23T07:16:13;15.60;75.90
38325;DHT22;24126;52.672;13.622;2023-03-23T07:18:40;15.60;76.00
38325;DHT22;24126;52.672;13.622;2023-03-23T07:21:07;15.70;76.10
38325;DHT22;24126;52.672;13.622;2023-03-23T07:23:35;15.70;76.20
38325;DHT22;24126;52.672;13.622;2023-03-23T07:26:05;15.70;76.20
38325;DHT22;24126;52.672;13.622;2023-03-23T07:28:39;15.70;76.20
38325;DHT22;24126;52.672;13.622;2023-03-23T07:31:22;15.70;76.30
38325;DHT22;24126;52.672;13.622;2023-03-23T07:33:50;15.70;76.40
38325;DHT22;24126;52.672;13.622;2023-03-23T07:36:17;15.80;76.50
38325;DHT22;24126;52.672;13.622;2023-03-23T07:38:44;15.80;76.60
38325;DHT22;24126;52.672;13.622;2023-03-23T07:41:12;15.80;76.70
38325;DHT22;24126;52.672;13.622;2023-03-23T07:43:41;15.80;76.70
38325;DHT22;24126;52.672;13.622;2023-03-23T07:46:12;15.80;76.70
38325;DHT22;24126;52.672;13.622;2023-03-23T07:48:59;15.80;76.70
38325;DHT22;24126;52.672;13.622;2023-03-23T07:51:35;15.90;76.80
38325;DHT22;24126;52.672;13.622;2023-03-23T07:54:05;15.90;76.80
38325;DHT22;24126;52.672;13.622;2023-03-23T07:56:52;15.90;76.80
38325;DHT22;24126;52.672;13.622;2023-03-23T07:59:25;15.90;76.90
38325;DHT22;24126;52.672;13.622;2023-03-23T08:01:54;16.00;77.00
38325;DHT22;24126;52.672;13.622;2023-03-23T08:04:32;16.00;76.90
38325;DHT22;24126;52.672;13.622;2023-03-23T08:07:12;16.00;77.00
38325;DHT22;24126;52.672;13.622;2023-03-23T08:09:46;16.00;77.20
38325;DHT22;24126;52.672;13.622;2023-03-23T08:12:29;16.10;77.40
38325;DHT22;24126;52.672;13.622;2023-03-23T08:15:14;16.00;77.30
38325;DHT22;24126;52.672;13.622;2023-03-23T08:18:00;16.00;77.50
38325;DHT22;24126;52.672;13.622;2023-03-23T08:20:50;16.10;77.70
38325;DHT22;24126;52.672;13.622;2023-03-23T08:23:28;16.10;77.50
38325;DHT22;24126;52.672;13.622;2023-03-23T08:26:25;16.20;77.50
38325;DHT22;24126;52.672;13.622;2023-03-23T08:29:04;16.20;77.60
38325;DHT22;24126;52.672;13.622;2023-03-23T08:31:52;16.20;77.50
38325;DHT22;24126;52.672;13.622;2023-03-23T08:34:30;16.30;77.60
38325;DHT22;24126;52.672;13.622;2023-03-23T08:36:58;16.30;77.90
38325;DHT22;24126;52.672;13.622;2023-03-23T08:39:52;16.40;77.50
38325;DHT22;24126;52.672;13.622;2023-03-23T08:42:31;16.40;77.50
38325;DHT22;24126;52.672;13.622;2023-03-23T08:45:12;16.40;77.50
38325;DHT22;24126;52.672;13.622;2023-03-23T08:47:55;16.40;77.60
38325;DHT22;24126;52.672;13.622;2023-03-23T08:50:36;16.40;77.70
38325;DHT22;24126;52.672;13.622;2023-03-23T08:53:42;16.40;77.80
38325;DHT22;24126;52.672;13.622;2023-03-23T08:56:28;16.50;77.80
38325;DHT22;24126;52.672;13.622;2023-03-23T08:59:25;16.60;77.80
38325;DHT22;24126;52.672;13.622;2023-03-23T09:02:01;16.60;77.70
38325;DHT22;24126;52.672;13.622;2023-03-23T09:04:36;16.70;77.60
38325;DHT22;24126;52.672;13.622;2023-03-23T09:07:22;16.70;77.40
38325;DHT22;24126;52.672;13.622;2023-03-23T09:09:49;16.80;77.30
38325;DHT22;24126;52.672;13.622;2023-03-23T09:12:16;16.80;77.90
38325;DHT22;24126;52.672;13.622;2023-03-23T09:14:44;16.80;77.20
38325;DHT22;24126;52.672;13.622;2023-03-23T09:17:12;16.90;77.30
38325;DHT22;24126;52.672;13.622;2023-03-23T09:19:39;16.90;77.30
38325;DHT22;24126;52.672;13.622;2023-03-23T09:22:07;17.00;77.20
38325;DHT22;24126;52.672;13.622;2023-03-23T09:24:34;17.00;77.00
38325;DHT22;24126;52.672;13.622;2023-03-23T09:27:01;17.10;76.80
38325;DHT22;24126;52.672;13.622;2023-03-23T09:29:29;17.10;76.70
38325;DHT22;24126;52.672;13.622;2023-03-23T09:31:56;17.10;77.50
38325;DHT22;24126;52.672;13.622;2023-03-23T09:34:23;17.10;76.70
38325;DHT22;24126;52.672;13.622;2023-03-23T09:36:51;17.20;76.80
38325;DHT22;24126;52.672;13.622;2023-03-23T09:39:18;17.20;76.80
38325;DHT22;24126;52.672;13.622;2023-03-23T09:44:33;17.50;77.40
38325;DHT22;24126;52.672;13.622;2023-03-23T09:49:50;17.90;76.80
38325;DHT22;24126;52.672;13.622;2023-03-23T09:52:19;18.10;76.20
38325;DHT22;24126;52.672;13.622;2023-03-23T09:54:46;18.30;75.70
38325;DHT22;24126;52.672;13.622;2023-03-23T09:57:15;18.40;75.30
38325;DHT22;24126;52.672;13.622;2023-03-23T09:59:49;18.60;75.40
38325;DHT22;24126;52.672;13.622;2023-03-23T10:02:18;18.70;75.10
38325;DHT22;24126;52.672;13.622;2023-03-23T10:04:49;18.90;74.50
38325;DHT22;24126;52.672;13.622;2023-03-23T10:07:18;19.10;74.00
38325;DHT22;24126;52.672;13.622;2023-03-23T10:09:46;19.20;73.70
38325;DHT22;24126;52.672;13.622;2023-03-23T10:17:45;19.50;72.20
38325;DHT22;24126;52.672;13.622;2023-03-23T10:25:21;19.50;71.60
38325;DHT22;24126;52.672;13.622;2023-03-23T10:28:01;19.40;71.70
38325;DHT22;24126;52.672;13.622;2023-03-23T10:30:32;19.40;71.60
38325;DHT22;24126;52.672;13.622;2023-03-23T10:33:02;19.30;71.50
38325;DHT22;24126;52.672;13.622;2023-03-23T10:38:27;19.40;72.00
38325;DHT22;24126;52.672;13.622;2023-03-23T10:41:00;19.40;71.60
38325;DHT22;24126;52.672;13.622;2023-03-23T10:43:28;19.40;71.30
38325;DHT22;24126;52.672;13.622;2023-03-23T10:46:01;19.50;71.20
38325;DHT22;24126;52.672;13.622;2023-03-23T10:48:30;19.50;70.60
38325;DHT22;24126;52.672;13.622;2023-03-23T10:50:59;19.60;70.80
38325;DHT22;24126;52.672;13.622;2023-03-23T10:53:37;19.60;70.90
38325;DHT22;24126;52.672;13.622;2023-03-23T10:56:04;19.70;70.60
38325;DHT22;24126;52.672;13.622;2023-03-23T10:58:33;19.70;69.90
38325;DHT22;24126;52.672;13.622;2023-03-23T11:01:02;19.80;70.00
38325;DHT22;24126;52.672;13.622;2023-03-23T11:03:44;19.80;69.80
38325;DHT22;24126;52.672;13.622;2023-03-23T11:08:55;19.70;69.60
38325;DHT22;24126;52.672;13.622;2023-03-23T11:11:30;19.70;69.60
38325;DHT22;24126;52.672;13.622;2023-03-23T11:14:20;19.70;69.70
38325;DHT22;24126;52.672;13.622;2023-03-23T11:16:52;19.70;69.60
38325;DHT22;24126;52.672;13.622;2023-03-23T11:19:31;19.70;69.60
38325;DHT22;24126;52.672;13.622;2023-03-23T11:22:05;19.60;69.70
38325;DHT22;24126;52.672;13.622;2023-03-23T11:24:43;19.60;69.60
38325;DHT22;24126;52.672;13.622;2023-03-23T11:27:11;19.60;69.40
38325;DHT22;24126;52.672;13.622;2023-03-23T11:29:55;19.60;69.30
38325;DHT22;24126;52.672;13.622;2023-03-23T11:32:26;19.60;69.30
38325;DHT22;24126;52.672;13.622;2023-03-23T11:34:57;19.70;69.30
38325;DHT22;24126;52.672;13.622;2023-03-23T11:39:56;19.70;69.30
38325;DHT22;24126;52.672;13.622;2023-03-23T11:42:25;19.80;69.50
38325;DHT22;24126;52.672;13.622;2023-03-23T11:44:53;19.80;68.80
38325;DHT22;24126;52.672;13.622;2023-03-23T11:50:27;19.90;68.30
38325;DHT22;24126;52.672;13.622;2023-03-23T11:55:26;20.10;67.80
38325;DHT22;24126;52.672;13.622;2023-03-23T11:57:55;20.10;67.30
38325;DHT22;24126;52.672;13.622;2023-03-23T12:00:22;20.20;67.40
38325;DHT22;24126;52.672;13.622;2023-03-23T12:05:32;20.40;67.10
38325;DHT22;24126;52.672;13.622;2023-03-23T12:13:29;20.40;66.30
38325;DHT22;24126;52.672;13.622;2023-03-23T12:21:51;20.40;65.70
38325;DHT22;24126;52.672;13.622;2023-03-23T12:27:07;20.30;65.80
38325;DHT22;24126;52.672;13.622;2023-03-23T12:37:19;20.20;65.80
38325;DHT22;24126;52.672;13.622;2023-03-23T12:45:07;20.20;65.70
38325;DHT22;24126;52.672;13.622;2023-03-23T12:50:32;20.20;64.90
38325;DHT22;24126;52.672;13.622;2023-03-23T12:53:11;20.20;64.90
38325;DHT22;24126;52.672;13.622;2023-03-23T12:58:15;20.10;64.80
38325;DHT22;24126;52.672;13.622;2023-03-23T13:01:19;20.10;64.60
38325;DHT22;24126;52.672;13.622;2023-03-23T13:03:46;20.10;64.80
38325;DHT22;24126;52.672;13.622;2023-03-23T13:08:49;20.20;65.10
38325;DHT22;24126;52.672;13.622;2023-03-23T13:11:20;20.20;64.80
38325;DHT22;24126;52.672;13.622;2023-03-23T13:13:52;20.40;64.70
38325;DHT22;24126;52.672;13.622;2023-03-23T13:16:27;20.50;64.50
38325;DHT22;24126;52.672;13.622;2023-03-23T13:19:06;20.60;64.30
38325;DHT22;24126;52.672;13.622;2023-03-23T13:21:38;20.60;63.80
38325;DHT22;24126;52.672;13.622;2023-03-23T13:24:13;20.80;64.00
38325;DHT22;24126;52.672;13.622;2023-03-23T13:26:41;20.90;63.50
38325;DHT22;24126;52.672;13.622;2023-03-23T13:29:12;21.00;64.20
38325;DHT22;24126;52.672;13.622;2023-03-23T13:31:40;21.10;63.10
38325;DHT22;24126;52.672;13.622;2023-03-23T13:34:16;21.10;62.50
38325;DHT22;24126;52.672;13.622;2023-03-23T13:37:09;21.10;62.50
38325;DHT22;24126;52.672;13.622;2023-03-23T13:39:34;21.10;62.20
38325;DHT22;24126;52.672;13.622;2023-03-23T13:42:03;21.10;61.80
38325;DHT22;24126;52.672;13.622;2023-03-23T13:49:51;21.10;62.10
38325;DHT22;24126;52.672;13.622;2023-03-23T13:55:30;21.30;61.60
38325;DHT22;24126;52.672;13.622;2023-03-23T13:57:55;21.30;61.00
38325;DHT22;24126;52.672;13.622;2023-03-23T14:00:48;21.30;60.20
38325;DHT22;24126;52.672;13.622;2023-03-23T14:03:16;21.20;61.00
38325;DHT22;24126;52.672;13.622;2023-03-23T14:05:59;21.20;60.80
38325;DHT22;24126;52.672;13.622;2023-03-23T14:10:57;21.10;60.50
38325;DHT22;24126;52.672;13.622;2023-03-23T14:13:34;21.10;60.50
38325;DHT22;24126;52.672;13.622;2023-03-23T14:16:04;21.10;60.50
38325;DHT22;24126;52.672;13.622;2023-03-23T14:20:58;21.10;60.70
38325;DHT22;24126;52.672;13.622;2023-03-23T14:23:26;21.10;59.80
38325;DHT22;24126;52.672;13.622;2023-03-23T14:26:01;21.20;59.50
38325;DHT22;24126;52.672;13.622;2023-03-23T14:28:37;21.20;59.00
38325;DHT22;24126;52.672;13.622;2023-03-23T14:31:04;21.20;58.60
38325;DHT22;24126;52.672;13.622;2023-03-23T14:33:31;21.10;58.90
38325;DHT22;24126;52.672;13.622;2023-03-23T14:35:58;21.10;59.20
38325;DHT22;24126;52.672;13.622;2023-03-23T14:38:26;21.00;59.20
38325;DHT22;24126;52.672;13.622;2023-03-23T14:41:01;20.90;59.30
38325;DHT22;24126;52.672;13.622;2023-03-23T14:43:28;20.80;59.30
38325;DHT22;24126;52.672;13.622;2023-03-23T14:45:56;20.80;59.30
38325;DHT22;24126;52.672;13.622;2023-03-23T14:48:24;20.70;58.80
38325;DHT22;24126;52.672;13.622;2023-03-23T14:50:55;20.60;58.80
38325;DHT22;24126;52.672;13.622;2023-03-23T14:53:24;20.50;58.50
38325;DHT22;24126;52.672;13.622;2023-03-23T14:55:52;20.40;58.50
38325;DHT22;24126;52.672;13.622;2023-03-23T14:58:21;20.40;58.70
38325;DHT22;24126;52.672;13.622;2023-03-23T15:01:03;20.30;58.90
38325;DHT22;24126;52.672;13.622;2023-03-23T15:03:35;20.30;59.30
38325;DHT22;24126;52.672;13.622;2023-03-23T15:06:09;20.20;59.10
38325;DHT22;24126;52.672;13.622;2023-03-23T15:08:38;20.20;59.30
38325;DHT22;24126;52.672;13.622;2023-03-23T15:11:20;20.20;59.50
38325;DHT22;24126;52.672;13.622;2023-03-23T15:13:48;20.30;59.80
38325;DHT22;24126;52.672;13.622;2023-03-23T15:16:21;20.30;59.60
38325;DHT22;24126;52.672;13.622;2023-03-23T15:18:56;20.40;59.40
38325;DHT22;24126;52.672;13.622;2023-03-23T15:21:28;20.40;59.10
38325;DHT22;24126;52.672;13.622;2023-03-23T15:23:56;20.40;59.10
38325;DHT22;24126;52.672;13.622;2023-03-23T15:26:28;20.40;58.80
38325;DHT22;24126;52.672;13.622;2023-03-23T15:29:00;20.30;58.80
38325;DHT22;24126;52.672;13.622;2023-03-23T15:31:27;20.30;58.90
38325;DHT22;24126;52.672;13.622;2023-03-23T15:33:57;20.30;59.00
38325;DHT22;24126;52.672;13.622;2023-03-23T15:36:25;20.30;59.00
38325;DHT22;24126;52.672;13.622;2023-03-23T15:38:58;20.30;58.80
38325;DHT22;24126;52.672;13.622;2023-03-23T15:41:26;20.20;59.00
38325;DHT22;24126;52.672;13.622;2023-03-23T15:43:55;20.20;59.20
38325;DHT22;24126;52.672;13.622;2023-03-23T15:46:25;20.10;59.10
38325;DHT22;24126;52.672;13.622;2023-03-23T15:51:26;20.10;59.10
38325;DHT22;24126;52.672;13.622;2023-03-23T15:53:54;20.10;59.00
38325;DHT22;24126;52.672;13.622;2023-03-23T15:56:21;20.10;58.70
38325;DHT22;24126;52.672;13.622;2023-03-23T15:58:48;20.10;58.70
38325;DHT22;24126;52.672;13.622;2023-03-23T16:01:20;20.00;58.70
38325;DHT22;24126;52.672;13.622;2023-03-23T16:04:00;19.90;58.70
38325;DHT22;24126;52.672;13.622;2023-03-23T16:06:29;19.80;59.00
38325;DHT22;24126;52.672;13.622;2023-03-23T16:08:57;19.80;59.10
38325;DHT22;24126;52.672;13.622;2023-03-23T16:11:25;19.70;59.70
38325;DHT22;24126;52.672;13.622;2023-03-23T16:13:52;19.70;59.20
38325;DHT22;24126;52.672;13.622;2023-03-23T16:16:21;19.60;59.20
38325;DHT22;24126;52.672;13.622;2023-03-23T16:18:49;19.60;59.20
38325;DHT22;24126;52.672;13.622;2023-03-23T16:21:16;19.60;59.30
38325;DHT22;24126;52.672;13.622;2023-03-23T16:23:43;19.60;59.30
38325;DHT22;24126;52.672;13.622;2023-03-23T16:26:14;19.50;59.40
38325;DHT22;24126;52.672;13.622;2023-03-23T16:28:41;19.50;59.40
38325;DHT22;24126;52.672;13.622;2023-03-23T16:31:09;19.50;59.50
38325;DHT22;24126;52.672;13.622;2023-03-23T16:33:36;19.50;59.60
38325;DHT22;24126;52.672;13.622;2023-03-23T16:36:03;19.40;59.60
38325;DHT22;24126;52.672;13.622;2023-03-23T16:38:30;19.40;59.70
38325;DHT22;24126;52.672;13.622;2023-03-23T16:40:57;19.40;59.80
38325;DHT22;24126;52.672;13.622;2023-03-23T16:43:24;19.40;60.10
38325;DHT22;24126;52.672;13.622;2023-03-23T16:45:53;19.30;60.80
38325;DHT22;24126;52.672;13.622;2023-03-23T16:48:21;19.30;61.10
38325;DHT22;24126;52.672;13.622;2023-03-23T16:50:48;19.30;61.30
38325;DHT22;24126;52.672;13.622;2023-03-23T16:53:14;19.20;61.60
38325;DHT22;24126;52.672;13.622;2023-03-23T16:55:42;19.20;61.80
38325;DHT22;24126;52.672;13.622;2023-03-23T16:58:13;19.10;61.90
38325;DHT22;24126;52.672;13.622;2023-03-23T17:00:41;19.10;62.20
38325;DHT22;24126;52.672;13.622;2023-03-23T17:03:08;19.00;62.20
38325;DHT22;24126;52.672;13.622;2023-03-23T17:05:36;19.00;62.50
38325;DHT22;24126;52.672;13.622;2023-03-23T17:08:04;19.00;62.70
38325;DHT22;24126;52.672;13.622;2023-03-23T17:10:32;18.90;62.80
38325;DHT22;24126;52.672;13.622;2023-03-23T17:12:59;18.90;63.00
38325;DHT22;24126;52.672;13.622;2023-03-23T17:15:26;18.80;63.00
38325;DHT22;24126;52.672;13.622;2023-03-23T17:17:53;18.80;63.10
38325;DHT22;24126;52.672;13.622;2023-03-23T17:20:20;18.80;63.40
38325;DHT22;24126;52.672;13.622;2023-03-23T17:22:48;18.70;63.50
38325;DHT22;24126;52.672;13.622;2023-03-23T17:25:15;18.70;63.70